الكل
Newman Airport (Newman, Western Australia) ZNE حالة الطقس
|
Newman, Western Australia (ZNE / YNWN)
سماء صافية
رياح خفيفة |
|
13 °C |
توقع منطقة محطة المطارZNE
| Date | Time (AWST) | Flight Rules | Wind Dir. | Speed | Type | Height AGL (ft) | Visibility | Remarks | ||||||
|---|---|---|---|---|---|---|---|---|---|---|---|---|---|---|
| 05-ماي | 07:00 | VFR | 120° | 12 kt | Clouds and Visibility are OK | >= 6 miles | ||||||||
| 05-ماي | 06:00 | VFR | 120° | 12 kt | Clouds and Visibility are OK | >= 6 miles | ||||||||
| 05-ماي | 05:00 | VFR | 120° | 12 kt | Clouds and Visibility are OK | >= 6 miles | ||||||||
| 05-ماي | 04:00 | VFR | 120° | 12 kt | Clouds and Visibility are OK | >= 6 miles | ||||||||
| 05-ماي | 03:00 | VFR | 120° | 12 kt | Clouds and Visibility are OK | >= 6 miles | ||||||||
| 05-ماي | 02:00 | VFR | 120° | 12 kt | Clouds and Visibility are OK | >= 6 miles | ||||||||
| 05-ماي | 01:00 | VFR | 120° | 12 kt | Clouds and Visibility are OK | >= 6 miles | ||||||||
| 05-ماي | 00:00 | VFR | 120° | 12 kt | Clouds and Visibility are OK | >= 6 miles | ||||||||
محفوظات أحدث تقرير روتيني عن حالة الطقس من أجل الطيران (الميتار )ZNE
| Date | Time (AWST) | Flight Rules | Wind Dir. | Speed | Type | Height AGL (ft) | Visibility | Temp (°C) | Temp (°F) | Dew Point (°C) | Dew Point (°F) | Rel. Humid. | Pressure | Density Altitude | Remarks |
|---|---|---|---|---|---|---|---|---|---|---|---|---|---|---|---|
| 05-ماي | 00:00 | VFR | 140° | 7 kt | 10000 meters | 13° | 55° | -2° | 28° | 35% | 1022 mb | 1,462 ft | |||
| 04-ماي | 23:00 | VFR | 150° | 5 kt | 10000 meters | 13° | 55° | -3° | 26° | 33% | 1022 mb | 1,462 ft | |||
| 04-ماي | 22:00 | VFR | 120° | 6 kt | 10000 meters | 15° | 59° | -3° | 26° | 29% | 1022 mb | 1,702 ft | |||
| 04-ماي | 21:00 | VFR | 130° | 6 kt | 10000 meters | 17° | 62° | -3° | 26° | 25% | 1022 mb | 1,942 ft | |||
| 04-ماي | 20:00 | VFR | 130° | 7 kt | 10000 meters | 18° | 64° | -2° | 28° | 26% | 1022 mb | 2,062 ft | |||
| 04-ماي | 19:00 | VFR | 120° | 5 kt | 10000 meters | 20° | 68° | -2° | 28° | 23% | 1021 mb | 2,331 ft | |||
| 04-ماي | 18:00 | VFR | 130° | 7 kt | 10000 meters | 22° | 71° | -1° | 30° | 21% | 1020 mb | 2,601 ft | |||
| 04-ماي | 17:00 | VFR | 120° | 9 kt | 10000 meters | 24° | 75° | 0° | 32° | 20% | 1020 mb | 2,841 ft | |||
| 04-ماي | 16:00 | VFR | 120° | 11 kt | 10000 meters | 25° | 77° | 0° | 32° | 19% | 1019 mb | 2,991 ft | |||
| 04-ماي | 15:00 | VFR | 100° | 10 kt | 10000 meters | 24° | 75° | 0° | 32° | 20% | 1019 mb | 2,871 ft | |||
| 04-ماي | 14:00 | VFR | 130° | 11 kt | 10000 meters | 24° | 75° | 0° | 32° | 20% | 1020 mb | 2,841 ft | |||
| 04-ماي | 13:00 | VFR | 120° | 10 kt | 10000 meters | 24° | 75° | 1° | 33° | 22% | 1020 mb | 2,841 ft | |||
| 04-ماي | 12:00 | VFR | 120° | 11 kt | 10000 meters | 22° | 71° | 1° | 33° | 25% | 1022 mb | 2,542 ft | |||
| 04-ماي | 11:00 | VFR | 130° | 9 kt | 10000 meters | 21° | 69° | 1° | 33° | 26% | 1023 mb | 2,392 ft | |||
| 04-ماي | 10:00 | VFR | 90° | 12 kt | 10000 meters | 20° | 68° | 1° | 33° | 28% | 1023 mb | 2,272 ft | |||
| 04-ماي | 09:00 | VFR | 90° | 12 kt | 10000 meters | 18° | 64° | 1° | 33° | 32% | 1024 mb | 2,003 ft | |||
| 04-ماي | 08:00 | VFR | 110° | 12 kt | 10000 meters | 17° | 62° | 1° | 33° | 34% | 1023 mb | 1,912 ft | |||
| 04-ماي | 07:00 | VFR | 110° | 7 kt | 10000 meters | 14° | 57° | 1° | 33° | 41% | 1023 mb | 1,552 ft | |||
| 04-ماي | 06:00 | VFR | 100° | 6 kt | 10000 meters | 14° | 57° | 0° | 32° | 38% | 1022 mb | 1,582 ft | |||
| 04-ماي | 05:00 | VFR | 110° | 4 kt | 10000 meters | 14° | 57° | 0° | 32° | 38% | 1021 mb | 1,611 ft | |||
| 04-ماي | 04:00 | VFR | 110° | 5 kt | 10000 meters | 14° | 57° | -1° | 30° | 36% | 1021 mb | 1,611 ft | |||
| 04-ماي | 03:00 | VFR | 110° | 5 kt | 10000 meters | 14° | 57° | -2° | 28° | 33% | 1021 mb | 1,611 ft | |||
| 04-ماي | 02:00 | VFR | 130° | 5 kt | 10000 meters | 15° | 59° | -3° | 26° | 29% | 1021 mb | 1,731 ft | |||
| 04-ماي | 01:00 | VFR | 110° | 5 kt | 10000 meters | 16° | 60° | -3° | 26° | 27% | 1021 mb | 1,851 ft |
تسجيل الدخول
| مُتصفحك غير مُدعَّم. قم بترقية متصفحك |
